sensor_id;sensor_type;location;lat;lon;timestamp;pressure;altitude;pressure_sealevel;temperature;humidity
75594;BME280;64176;49.156;7.810;2023-02-26T00:01:43;98868.44;;;-1.33;70.01
75594;BME280;64176;49.156;7.810;2023-02-26T00:04:28;98867.06;;;-1.27;69.67
75594;BME280;64176;49.156;7.810;2023-02-26T00:07:12;98864.75;;;-1.22;70.05
75594;BME280;64176;49.156;7.810;2023-02-26T00:09:56;98867.66;;;-1.50;70.89
75594;BME280;64176;49.156;7.810;2023-02-26T00:12:40;98870.75;;;-1.38;70.50
75594;BME280;64176;49.156;7.810;2023-02-26T00:15:25;98879.31;;;-1.36;69.84
75594;BME280;64176;49.156;7.810;2023-02-26T00:18:12;98883.81;;;-1.48;69.79
75594;BME280;64176;49.156;7.810;2023-02-26T00:20:58;98880.41;;;-1.49;70.46
75594;BME280;64176;49.156;7.810;2023-02-26T00:23:43;98863.72;;;-1.43;70.14
75594;BME280;64176;49.156;7.810;2023-02-26T00:26:29;98876.94;;;-1.33;69.56
75594;BME280;64176;49.156;7.810;2023-02-26T00:29:16;98885.91;;;-1.39;69.36
75594;BME280;64176;49.156;7.810;2023-02-26T00:32:00;98889.81;;;-1.46;70.47
75594;BME280;64176;49.156;7.810;2023-02-26T00:34:50;98887.22;;;-1.48;70.38
75594;BME280;64176;49.156;7.810;2023-02-26T00:38:00;98894.25;;;-1.77;70.46
75594;BME280;64176;49.156;7.810;2023-02-26T00:40:48;98885.63;;;-1.81;70.04
75594;BME280;64176;49.156;7.810;2023-02-26T00:43:33;98890.53;;;-2.02;71.17
75594;BME280;64176;49.156;7.810;2023-02-26T00:52:18;98895.03;;;-1.78;71.04
75594;BME280;64176;49.156;7.810;2023-02-26T00:55:08;98896.53;;;-2.00;72.34
75594;BME280;64176;49.156;7.810;2023-02-26T00:57:53;98892.63;;;-1.93;72.24
75594;BME280;64176;49.156;7.810;2023-02-26T01:00:36;98894.13;;;-2.14;73.07
75594;BME280;64176;49.156;7.810;2023-02-26T01:03:21;98901.00;;;-2.12;73.71
75594;BME280;64176;49.156;7.810;2023-02-26T01:06:12;98889.69;;;-2.18;73.33
75594;BME280;64176;49.156;7.810;2023-02-26T01:09:24;98892.63;;;-1.93;73.37
75594;BME280;64176;49.156;7.810;2023-02-26T01:12:10;98890.97;;;-1.93;73.31
75594;BME280;64176;49.156;7.810;2023-02-26T01:14:55;98882.38;;;-2.30;73.53
75594;BME280;64176;49.156;7.810;2023-02-26T01:17:47;98888.53;;;-2.25;75.06
75594;BME280;64176;49.156;7.810;2023-02-26T01:20:43;98887.06;;;-2.04;73.66
75594;BME280;64176;49.156;7.810;2023-02-26T01:23:37;98892.91;;;-2.05;73.41
75594;BME280;64176;49.156;7.810;2023-02-26T01:26:26;98890.47;;;-2.03;73.39
75594;BME280;64176;49.156;7.810;2023-02-26T01:29:11;98889.56;;;-2.22;73.34
75594;BME280;64176;49.156;7.810;2023-02-26T01:32:04;98895.28;;;-2.42;75.34
75594;BME280;64176;49.156;7.810;2023-02-26T01:47:12;98892.44;;;-2.64;76.75
75594;BME280;64176;49.156;7.810;2023-02-26T01:50:23;98884.94;;;-2.63;76.12
75594;BME280;64176;49.156;7.810;2023-02-26T01:53:24;98888.44;;;-2.44;75.66
75594;BME280;64176;49.156;7.810;2023-02-26T01:56:16;98887.56;;;-2.45;75.32
75594;BME280;64176;49.156;7.810;2023-02-26T01:59:03;98880.59;;;-2.49;75.96
75594;BME280;64176;49.156;7.810;2023-02-26T02:01:53;98893.53;;;-2.43;75.15
75594;BME280;64176;49.156;7.810;2023-02-26T02:04:38;98894.34;;;-2.44;75.08
75594;BME280;64176;49.156;7.810;2023-02-26T02:07:23;98898.03;;;-2.37;75.16
75594;BME280;64176;49.156;7.810;2023-02-26T02:10:08;98900.44;;;-2.57;75.74
75594;BME280;64176;49.156;7.810;2023-02-26T02:31:19;98903.72;;;-2.41;75.60
75594;BME280;64176;49.156;7.810;2023-02-26T02:40:31;98912.28;;;-2.39;75.95
75594;BME280;64176;49.156;7.810;2023-02-26T02:43:20;98913.06;;;-2.40;75.09
75594;BME280;64176;49.156;7.810;2023-02-26T02:46:09;98913.25;;;-2.20;74.86
75594;BME280;64176;49.156;7.810;2023-02-26T02:49:01;98908.34;;;-2.50;75.83
75594;BME280;64176;49.156;7.810;2023-02-26T02:51:54;98910.00;;;-2.35;75.58
75594;BME280;64176;49.156;7.810;2023-02-26T02:54:40;98908.34;;;-2.34;75.20
75594;BME280;64176;49.156;7.810;2023-02-26T02:57:49;98906.59;;;-2.51;75.78
75594;BME280;64176;49.156;7.810;2023-02-26T03:00:37;98905.25;;;-2.61;75.01
75594;BME280;64176;49.156;7.810;2023-02-26T03:03:34;98905.41;;;-2.08;72.31
75594;BME280;64176;49.156;7.810;2023-02-26T03:06:20;98899.63;;;-2.05;72.86
75594;BME280;64176;49.156;7.810;2023-02-26T03:09:08;98915.19;;;-1.98;72.34
75594;BME280;64176;49.156;7.810;2023-02-26T03:11:52;98916.47;;;-2.06;73.66
75594;BME280;64176;49.156;7.810;2023-02-26T03:14:39;98920.22;;;-2.15;73.67
75594;BME280;64176;49.156;7.810;2023-02-26T03:17:44;98925.88;;;-2.21;75.17
75594;BME280;64176;49.156;7.810;2023-02-26T03:20:35;98919.84;;;-2.23;75.14
75594;BME280;64176;49.156;7.810;2023-02-26T03:23:31;98920.56;;;-2.26;74.75
75594;BME280;64176;49.156;7.810;2023-02-26T03:32:02;98931.13;;;-2.16;74.54
75594;BME280;64176;49.156;7.810;2023-02-26T03:34:55;98943.09;;;-2.30;74.51
75594;BME280;64176;49.156;7.810;2023-02-26T03:37:50;98939.00;;;-1.76;71.51
75594;BME280;64176;49.156;7.810;2023-02-26T03:40:40;98937.78;;;-1.85;72.58
75594;BME280;64176;49.156;7.810;2023-02-26T03:46:35;98934.25;;;-2.22;73.68
75594;BME280;64176;49.156;7.810;2023-02-26T03:49:30;98934.44;;;-2.01;72.88
75594;BME280;64176;49.156;7.810;2023-02-26T03:52:17;98933.41;;;-2.05;73.56
75594;BME280;64176;49.156;7.810;2023-02-26T03:58:54;98944.50;;;-2.03;73.30
75594;BME280;64176;49.156;7.810;2023-02-26T04:02:11;98951.13;;;-2.05;73.21
75594;BME280;64176;49.156;7.810;2023-02-26T04:05:14;98945.25;;;-2.22;73.76
75594;BME280;64176;49.156;7.810;2023-02-26T04:08:01;98957.75;;;-2.25;74.96
75594;BME280;64176;49.156;7.810;2023-02-26T04:10:53;98962.06;;;-2.06;72.48
75594;BME280;64176;49.156;7.810;2023-02-26T04:13:38;98957.75;;;-1.91;71.47
75594;BME280;64176;49.156;7.810;2023-02-26T04:16:23;98974.50;;;-2.10;73.21
75594;BME280;64176;49.156;7.810;2023-02-26T04:19:08;98965.06;;;-2.13;71.83
75594;BME280;64176;49.156;7.810;2023-02-26T04:21:52;98966.06;;;-2.09;72.18
75594;BME280;64176;49.156;7.810;2023-02-26T04:24:39;98963.78;;;-1.71;70.62
75594;BME280;64176;49.156;7.810;2023-02-26T04:27:23;98978.69;;;-1.77;70.41
75594;BME280;64176;49.156;7.810;2023-02-26T04:30:08;98974.50;;;-2.10;71.71
75594;BME280;64176;49.156;7.810;2023-02-26T04:32:55;98986.81;;;-2.16;72.19
75594;BME280;64176;49.156;7.810;2023-02-26T04:35:39;98989.34;;;-2.16;72.84
75594;BME280;64176;49.156;7.810;2023-02-26T04:38:26;98959.69;;;-2.19;71.97
75594;BME280;64176;49.156;7.810;2023-02-26T04:41:10;98987.53;;;-2.03;72.61
75594;BME280;64176;49.156;7.810;2023-02-26T04:43:56;98979.31;;;-2.15;72.89
75594;BME280;64176;49.156;7.810;2023-02-26T04:46:44;98975.69;;;-2.36;73.16
75594;BME280;64176;49.156;7.810;2023-02-26T04:49:29;98996.00;;;-2.18;72.51
75594;BME280;64176;49.156;7.810;2023-02-26T04:52:16;99000.03;;;-2.06;73.16
75594;BME280;64176;49.156;7.810;2023-02-26T04:55:01;98990.06;;;-2.19;73.08
75594;BME280;64176;49.156;7.810;2023-02-26T04:57:48;99002.63;;;-2.21;72.89
75594;BME280;64176;49.156;7.810;2023-02-26T05:00:32;98987.78;;;-2.14;72.61
75594;BME280;64176;49.156;7.810;2023-02-26T05:03:17;99004.59;;;-1.99;71.63
75594;BME280;64176;49.156;7.810;2023-02-26T05:06:01;99009.03;;;-1.95;71.56
75594;BME280;64176;49.156;7.810;2023-02-26T05:08:47;99011.75;;;-2.24;72.96
75594;BME280;64176;49.156;7.810;2023-02-26T05:11:31;99009.56;;;-1.84;71.56
75594;BME280;64176;49.156;7.810;2023-02-26T05:14:16;99015.38;;;-2.19;73.20
75594;BME280;64176;49.156;7.810;2023-02-26T05:17:02;99026.00;;;-2.10;72.84
75594;BME280;64176;49.156;7.810;2023-02-26T05:19:48;99023.22;;;-2.14;72.91
75594;BME280;64176;49.156;7.810;2023-02-26T05:22:32;99030.03;;;-2.13;72.75
75594;BME280;64176;49.156;7.810;2023-02-26T05:25:16;99034.84;;;-2.18;73.56
75594;BME280;64176;49.156;7.810;2023-02-26T05:28:00;99035.16;;;-2.12;73.80
75594;BME280;64176;49.156;7.810;2023-02-26T05:30:46;99032.84;;;-2.40;74.48
75594;BME280;64176;49.156;7.810;2023-02-26T05:33:31;99027.72;;;-2.25;73.46
75594;BME280;64176;49.156;7.810;2023-02-26T05:36:15;99037.44;;;-2.16;74.23
75594;BME280;64176;49.156;7.810;2023-02-26T05:38:59;99048.28;;;-2.03;73.56
75594;BME280;64176;49.156;7.810;2023-02-26T05:41:43;99047.91;;;-2.10;73.19
75594;BME280;64176;49.156;7.810;2023-02-26T05:44:31;99046.25;;;-2.10;74.23
75594;BME280;64176;49.156;7.810;2023-02-26T05:47:17;99064.59;;;-2.14;73.89
75594;BME280;64176;49.156;7.810;2023-02-26T05:50:02;99058.25;;;-2.06;73.88
75594;BME280;64176;49.156;7.810;2023-02-26T05:52:46;99060.88;;;-2.04;73.66
75594;BME280;64176;49.156;7.810;2023-02-26T05:55:30;99072.72;;;-2.03;73.71
75594;BME280;64176;49.156;7.810;2023-02-26T05:58:15;99063.16;;;-1.93;73.81
75594;BME280;64176;49.156;7.810;2023-02-26T06:01:02;99065.44;;;-1.81;73.34
75594;BME280;64176;49.156;7.810;2023-02-26T06:03:46;99063.44;;;-1.70;73.45
75594;BME280;64176;49.156;7.810;2023-02-26T06:06:32;99062.59;;;-1.53;72.58
75594;BME280;64176;49.156;7.810;2023-02-26T06:09:16;99071.16;;;-1.51;73.01
75594;BME280;64176;49.156;7.810;2023-02-26T06:12:03;99086.59;;;-1.47;73.18
75594;BME280;64176;49.156;7.810;2023-02-26T06:14:47;99073.16;;;-1.45;72.16
75594;BME280;64176;49.156;7.810;2023-02-26T06:17:31;99080.66;;;-1.47;72.16
75594;BME280;64176;49.156;7.810;2023-02-26T06:20:17;99078.13;;;-1.47;72.71
75594;BME280;64176;49.156;7.810;2023-02-26T06:23:01;99081.66;;;-1.43;72.46
75594;BME280;64176;49.156;7.810;2023-02-26T06:25:45;99089.50;;;-1.39;72.60
75594;BME280;64176;49.156;7.810;2023-02-26T06:28:32;99092.72;;;-1.25;72.26
75594;BME280;64176;49.156;7.810;2023-02-26T06:31:16;99101.75;;;-1.30;72.23
75594;BME280;64176;49.156;7.810;2023-02-26T06:34:05;99111.44;;;-1.39;72.79
75594;BME280;64176;49.156;7.810;2023-02-26T06:36:49;99104.88;;;-1.36;72.23
75594;BME280;64176;49.156;7.810;2023-02-26T06:39:33;99111.81;;;-1.32;72.41
75594;BME280;64176;49.156;7.810;2023-02-26T06:42:17;99121.84;;;-1.17;72.50
75594;BME280;64176;49.156;7.810;2023-02-26T06:45:04;99127.88;;;-1.15;72.23
75594;BME280;64176;49.156;7.810;2023-02-26T06:47:48;99125.25;;;-1.17;72.35
75594;BME280;64176;49.156;7.810;2023-02-26T06:50:32;99133.38;;;-1.24;72.20
75594;BME280;64176;49.156;7.810;2023-02-26T06:53:17;99114.97;;;-1.20;71.45
75594;BME280;64176;49.156;7.810;2023-02-26T06:56:03;99133.56;;;-1.19;71.71
75594;BME280;64176;49.156;7.810;2023-02-26T06:58:48;99132.06;;;-1.16;71.20
75594;BME280;64176;49.156;7.810;2023-02-26T07:01:32;99119.19;;;-1.02;71.61
75594;BME280;64176;49.156;7.810;2023-02-26T07:04:16;99139.50;;;-1.02;71.04
75594;BME280;64176;49.156;7.810;2023-02-26T07:07:00;99133.09;;;-1.12;70.94
75594;BME280;64176;49.156;7.810;2023-02-26T07:09:44;99134.63;;;-0.98;70.50
75594;BME280;64176;49.156;7.810;2023-02-26T07:12:28;99142.38;;;-0.95;70.49
75594;BME280;64176;49.156;7.810;2023-02-26T07:15:12;99134.00;;;-0.94;70.39
75594;BME280;64176;49.156;7.810;2023-02-26T07:17:59;99148.41;;;-0.93;69.50
75594;BME280;64176;49.156;7.810;2023-02-26T07:20:43;99145.16;;;-0.90;69.89
75594;BME280;64176;49.156;7.810;2023-02-26T07:23:28;99150.44;;;-0.86;69.69
75594;BME280;64176;49.156;7.810;2023-02-26T07:26:12;99163.84;;;-0.88;68.28
75594;BME280;64176;49.156;7.810;2023-02-26T07:28:58;99156.03;;;-0.93;68.83
75594;BME280;64176;49.156;7.810;2023-02-26T07:31:43;99168.50;;;-0.80;68.78
75594;BME280;64176;49.156;7.810;2023-02-26T07:34:30;99160.97;;;-0.78;68.63
75594;BME280;64176;49.156;7.810;2023-02-26T07:37:14;99172.47;;;-0.85;68.15
75594;BME280;64176;49.156;7.810;2023-02-26T07:40:00;99159.59;;;-0.89;68.41
75594;BME280;64176;49.156;7.810;2023-02-26T07:42:47;99178.94;;;-0.91;68.42
75594;BME280;64176;49.156;7.810;2023-02-26T07:45:34;99179.38;;;-0.82;68.93
75594;BME280;64176;49.156;7.810;2023-02-26T07:48:18;99193.47;;;-0.87;68.85
75594;BME280;64176;49.156;7.810;2023-02-26T07:51:02;99199.59;;;-0.84;68.52
75594;BME280;64176;49.156;7.810;2023-02-26T07:53:46;99201.25;;;-0.84;68.55
75594;BME280;64176;49.156;7.810;2023-02-26T07:56:35;99198.94;;;-0.80;67.58
75594;BME280;64176;49.156;7.810;2023-02-26T07:59:21;99208.78;;;-0.86;67.12
75594;BME280;64176;49.156;7.810;2023-02-26T08:02:09;99215.16;;;-0.76;66.46
75594;BME280;64176;49.156;7.810;2023-02-26T08:04:53;99212.16;;;-0.51;66.68
75594;BME280;64176;49.156;7.810;2023-02-26T08:07:37;99211.09;;;-0.56;67.05
75594;BME280;64176;49.156;7.810;2023-02-26T08:10:21;99198.09;;;-0.62;66.81
75594;BME280;64176;49.156;7.810;2023-02-26T08:13:05;99206.22;;;-0.69;66.68
75594;BME280;64176;49.156;7.810;2023-02-26T08:15:51;99200.41;;;-0.49;65.80
75594;BME280;64176;49.156;7.810;2023-02-26T08:18:35;99205.00;;;-0.60;65.74
75594;BME280;64176;49.156;7.810;2023-02-26T08:21:20;99207.16;;;-0.50;64.76
75594;BME280;64176;49.156;7.810;2023-02-26T08:24:06;99204.13;;;-0.25;64.81
75594;BME280;64176;49.156;7.810;2023-02-26T08:26:50;99204.06;;;-0.26;64.48
75594;BME280;64176;49.156;7.810;2023-02-26T08:29:34;99208.59;;;-0.19;64.26
75594;BME280;64176;49.156;7.810;2023-02-26T08:32:18;99214.56;;;-0.19;64.29
75594;BME280;64176;49.156;7.810;2023-02-26T08:35:03;99220.22;;;-0.07;64.34
75594;BME280;64176;49.156;7.810;2023-02-26T08:37:47;99208.03;;;-0.49;64.05
75594;BME280;64176;49.156;7.810;2023-02-26T08:40:33;99226.56;;;-0.34;64.47
75594;BME280;64176;49.156;7.810;2023-02-26T08:43:18;99226.47;;;-0.35;64.37
75594;BME280;64176;49.156;7.810;2023-02-26T08:46:03;99233.34;;;-0.33;63.90
75594;BME280;64176;49.156;7.810;2023-02-26T08:48:47;99224.34;;;-0.44;63.60
75594;BME280;64176;49.156;7.810;2023-02-26T08:51:31;99228.94;;;-0.02;63.43
75594;BME280;64176;49.156;7.810;2023-02-26T08:54:17;99230.31;;;-0.26;63.10
75594;BME280;64176;49.156;7.810;2023-02-26T08:57:01;99242.13;;;-0.26;63.73
75594;BME280;64176;49.156;7.810;2023-02-26T08:59:48;99236.25;;;-0.43;63.12
75594;BME280;64176;49.156;7.810;2023-02-26T09:02:35;99244.44;;;-0.31;63.24
75594;BME280;64176;49.156;7.810;2023-02-26T09:05:21;99246.47;;;-0.42;62.39
75594;BME280;64176;49.156;7.810;2023-02-26T09:08:07;99243.09;;;-0.24;62.41
75594;BME280;64176;49.156;7.810;2023-02-26T09:10:53;99258.53;;;-0.20;62.39
75594;BME280;64176;49.156;7.810;2023-02-26T09:13:38;99268.69;;;-0.20;63.02
75594;BME280;64176;49.156;7.810;2023-02-26T09:16:21;99267.44;;;-0.28;63.50
75594;BME280;64176;49.156;7.810;2023-02-26T09:19:06;99280.59;;;-0.19;62.79
75594;BME280;64176;49.156;7.810;2023-02-26T09:21:51;99273.69;;;-0.21;62.91
75594;BME280;64176;49.156;7.810;2023-02-26T09:24:38;99284.44;;;-0.27;63.79
75594;BME280;64176;49.156;7.810;2023-02-26T09:27:22;99275.06;;;-0.10;63.82
75594;BME280;64176;49.156;7.810;2023-02-26T09:30:07;99288.72;;;-0.26;64.17
75594;BME280;64176;49.156;7.810;2023-02-26T09:32:51;99283.84;;;-0.21;64.39
75594;BME280;64176;49.156;7.810;2023-02-26T09:35:35;99300.31;;;-0.31;65.17
75594;BME280;64176;49.156;7.810;2023-02-26T09:38:19;99294.75;;;-0.24;65.34
75594;BME280;64176;49.156;7.810;2023-02-26T09:41:39;99283.34;;;-0.14;64.66
75594;BME280;64176;49.156;7.810;2023-02-26T09:44:26;99283.50;;;0.07;64.46
75594;BME280;64176;49.156;7.810;2023-02-26T09:47:20;99298.72;;;-0.29;64.88
75594;BME280;64176;49.156;7.810;2023-02-26T09:50:19;99293.06;;;-0.06;64.26
75594;BME280;64176;49.156;7.810;2023-02-26T09:56:15;99306.75;;;-0.38;64.58
75594;BME280;64176;49.156;7.810;2023-02-26T09:59:00;99312.34;;;-0.27;64.87
75594;BME280;64176;49.156;7.810;2023-02-26T10:02:37;99312.53;;;-0.24;65.03
75594;BME280;64176;49.156;7.810;2023-02-26T10:05:17;99306.78;;;-0.20;65.85
75594;BME280;64176;49.156;7.810;2023-02-26T10:08:17;99299.59;;;-0.11;65.27
75594;BME280;64176;49.156;7.810;2023-02-26T10:11:15;99304.00;;;0.11;65.03
75594;BME280;64176;49.156;7.810;2023-02-26T10:14:11;99299.09;;;0.14;63.93
75594;BME280;64176;49.156;7.810;2023-02-26T10:17:02;99299.03;;;-0.05;63.86
75594;BME280;64176;49.156;7.810;2023-02-26T10:19:52;99303.72;;;0.23;63.56
75594;BME280;64176;49.156;7.810;2023-02-26T10:22:46;99311.28;;;0.04;63.78
75594;BME280;64176;49.156;7.810;2023-02-26T10:25:36;99282.63;;;0.06;62.60
75594;BME280;64176;49.156;7.810;2023-02-26T10:43:40;99306.59;;;0.66;60.18
75594;BME280;64176;49.156;7.810;2023-02-26T10:46:37;99292.56;;;0.56;60.45
75594;BME280;64176;49.156;7.810;2023-02-26T10:52:34;99295.41;;;0.82;59.82
75594;BME280;64176;49.156;7.810;2023-02-26T10:55:32;99300.00;;;0.34;59.66
75594;BME280;64176;49.156;7.810;2023-02-26T10:58:24;99304.44;;;0.75;59.84
75594;BME280;64176;49.156;7.810;2023-02-26T11:01:19;99323.38;;;0.62;59.50
75594;BME280;64176;49.156;7.810;2023-02-26T11:04:08;99295.84;;;0.54;59.42
75594;BME280;64176;49.156;7.810;2023-02-26T11:06:56;99297.47;;;0.90;59.90
75594;BME280;64176;49.156;7.810;2023-02-26T11:09:44;99314.25;;;0.67;59.11
75594;BME280;64176;49.156;7.810;2023-02-26T11:12:33;99316.03;;;0.88;58.67
75594;BME280;64176;49.156;7.810;2023-02-26T11:15:22;99304.13;;;1.06;59.09
75594;BME280;64176;49.156;7.810;2023-02-26T11:18:14;99319.06;;;1.18;58.17
75594;BME280;64176;49.156;7.810;2023-02-26T11:21:03;99315.69;;;1.19;57.50
75594;BME280;64176;49.156;7.810;2023-02-26T11:23:49;99315.34;;;1.11;57.76
75594;BME280;64176;49.156;7.810;2023-02-26T11:26:37;99331.47;;;0.73;58.38
75594;BME280;64176;49.156;7.810;2023-02-26T11:29:24;99310.19;;;0.90;58.20
75594;BME280;64176;49.156;7.810;2023-02-26T11:32:19;99336.63;;;0.75;58.25
75594;BME280;64176;49.156;7.810;2023-02-26T11:35:08;99340.72;;;0.90;58.20
75594;BME280;64176;49.156;7.810;2023-02-26T11:37:56;99332.50;;;0.96;58.39
75594;BME280;64176;49.156;7.810;2023-02-26T11:40:46;99331.81;;;1.00;58.33
75594;BME280;64176;49.156;7.810;2023-02-26T11:43:38;99344.13;;;0.71;59.43
75594;BME280;64176;49.156;7.810;2023-02-26T11:46:27;99338.63;;;0.62;59.65
75594;BME280;64176;49.156;7.810;2023-02-26T11:49:16;99342.69;;;0.59;59.71
75594;BME280;64176;49.156;7.810;2023-02-26T11:55:17;99335.59;;;0.52;60.75
75594;BME280;64176;49.156;7.810;2023-02-26T11:58:18;99352.16;;;0.44;60.18
75594;BME280;64176;49.156;7.810;2023-02-26T12:01:06;99347.91;;;0.62;60.55
75594;BME280;64176;49.156;7.810;2023-02-26T12:03:50;99357.84;;;0.75;60.46
75594;BME280;64176;49.156;7.810;2023-02-26T12:06:38;99350.84;;;0.52;60.08
75594;BME280;64176;49.156;7.810;2023-02-26T12:09:25;99349.19;;;0.52;59.98
75594;BME280;64176;49.156;7.810;2023-02-26T12:15:38;99348.91;;;0.83;59.46
75594;BME280;64176;49.156;7.810;2023-02-26T12:18:34;99355.56;;;0.81;59.71
75594;BME280;64176;49.156;7.810;2023-02-26T12:24:26;99355.00;;;1.06;59.03
75594;BME280;64176;49.156;7.810;2023-02-26T12:33:54;99352.94;;;0.97;58.98
75594;BME280;64176;49.156;7.810;2023-02-26T12:42:59;99352.94;;;1.17;57.05
75594;BME280;64176;49.156;7.810;2023-02-26T12:45:55;99374.25;;;1.19;57.77
75594;BME280;64176;49.156;7.810;2023-02-26T12:52:08;99368.59;;;1.26;57.07
75594;BME280;64176;49.156;7.810;2023-02-26T13:11:02;99362.19;;;1.15;57.72
75594;BME280;64176;49.156;7.810;2023-02-26T13:14:20;99359.69;;;1.16;57.69
75594;BME280;64176;49.156;7.810;2023-02-26T13:17:32;99359.97;;;1.03;58.36
75594;BME280;64176;49.156;7.810;2023-02-26T13:20:26;99361.56;;;1.01;58.38
75594;BME280;64176;49.156;7.810;2023-02-26T13:23:22;99370.22;;;1.04;58.08
75594;BME280;64176;49.156;7.810;2023-02-26T13:26:09;99370.81;;;1.37;58.22
75594;BME280;64176;49.156;7.810;2023-02-26T13:28:58;99346.88;;;1.34;58.41
75594;BME280;64176;49.156;7.810;2023-02-26T13:31:48;99354.81;;;1.40;58.01
75594;BME280;64176;49.156;7.810;2023-02-26T13:34:56;99358.63;;;1.11;58.38
75594;BME280;64176;49.156;7.810;2023-02-26T13:37:49;99360.91;;;1.05;58.68
75594;BME280;64176;49.156;7.810;2023-02-26T13:40:55;99371.88;;;1.04;59.41
75594;BME280;64176;49.156;7.810;2023-02-26T13:52:35;99383.06;;;1.07;62.79
75594;BME280;64176;49.156;7.810;2023-02-26T13:55:44;99377.44;;;1.15;63.84
75594;BME280;64176;49.156;7.810;2023-02-26T13:58:38;99370.59;;;1.33;62.98
75594;BME280;64176;49.156;7.810;2023-02-26T14:01:34;99366.31;;;1.51;61.96
75594;BME280;64176;49.156;7.810;2023-02-26T14:04:52;99369.88;;;1.55;61.20
75594;BME280;64176;49.156;7.810;2023-02-26T14:08:17;99369.50;;;1.66;59.43
75594;BME280;64176;49.156;7.810;2023-02-26T14:11:05;99358.44;;;1.66;59.16
75594;BME280;64176;49.156;7.810;2023-02-26T14:14:15;99332.47;;;1.54;58.63
75594;BME280;64176;49.156;7.810;2023-02-26T14:22:41;99361.72;;;1.82;57.29
75594;BME280;64176;49.156;7.810;2023-02-26T14:25:31;99361.53;;;1.99;57.30
75594;BME280;64176;49.156;7.810;2023-02-26T14:31:15;99365.78;;;1.79;56.46
75594;BME280;64176;49.156;7.810;2023-02-26T14:34:30;99379.59;;;1.84;57.19
75594;BME280;64176;49.156;7.810;2023-02-26T14:37:19;99382.81;;;1.80;57.35
75594;BME280;64176;49.156;7.810;2023-02-26T14:40:18;99380.56;;;1.67;57.11
75594;BME280;64176;49.156;7.810;2023-02-26T14:43:06;99386.34;;;1.63;56.66
75594;BME280;64176;49.156;7.810;2023-02-26T14:46:00;99389.94;;;1.68;57.38
75594;BME280;64176;49.156;7.810;2023-02-26T14:48:47;99403.03;;;1.56;57.99
75594;BME280;64176;49.156;7.810;2023-02-26T15:04:21;99405.19;;;1.47;58.75
75594;BME280;64176;49.156;7.810;2023-02-26T15:13:41;99408.94;;;1.74;56.48
75594;BME280;64176;49.156;7.810;2023-02-26T15:22:43;99410.59;;;1.74;55.28
75594;BME280;64176;49.156;7.810;2023-02-26T15:25:35;99417.50;;;1.57;56.31
75594;BME280;64176;49.156;7.810;2023-02-26T15:28:27;99396.94;;;1.53;56.47
75594;BME280;64176;49.156;7.810;2023-02-26T15:31:12;99422.59;;;1.57;56.49
75594;BME280;64176;49.156;7.810;2023-02-26T15:33:57;99422.81;;;1.62;56.42
75594;BME280;64176;49.156;7.810;2023-02-26T15:36:46;99416.03;;;1.62;56.02
75594;BME280;64176;49.156;7.810;2023-02-26T15:39:34;99415.50;;;1.69;55.52
75594;BME280;64176;49.156;7.810;2023-02-26T15:42:20;99418.97;;;1.71;55.80
75594;BME280;64176;49.156;7.810;2023-02-26T15:45:26;99420.66;;;1.71;55.27
75594;BME280;64176;49.156;7.810;2023-02-26T15:51:28;99430.31;;;1.59;55.19
75594;BME280;64176;49.156;7.810;2023-02-26T15:54:16;99433.53;;;1.74;56.12
75594;BME280;64176;49.156;7.810;2023-02-26T15:57:02;99440.31;;;1.73;55.67
75594;BME280;64176;49.156;7.810;2023-02-26T15:59:48;99449.34;;;1.67;55.49
75594;BME280;64176;49.156;7.810;2023-02-26T16:02:32;99445.97;;;1.68;56.36
75594;BME280;64176;49.156;7.810;2023-02-26T16:05:17;99439.00;;;1.44;56.06
75594;BME280;64176;49.156;7.810;2023-02-26T16:08:04;99444.25;;;1.48;56.12
75594;BME280;64176;49.156;7.810;2023-02-26T16:10:50;99454.84;;;1.57;56.67
75594;BME280;64176;49.156;7.810;2023-02-26T16:13:36;99444.19;;;1.46;56.67
75594;BME280;64176;49.156;7.810;2023-02-26T16:16:28;99453.38;;;1.42;57.55
75594;BME280;64176;49.156;7.810;2023-02-26T16:19:37;99460.16;;;1.24;56.95
75594;BME280;64176;49.156;7.810;2023-02-26T16:22:34;99465.25;;;1.24;57.43
75594;BME280;64176;49.156;7.810;2023-02-26T16:25:50;99467.00;;;1.25;57.36
75594;BME280;64176;49.156;7.810;2023-02-26T16:28:39;99471.38;;;1.28;57.26
75594;BME280;64176;49.156;7.810;2023-02-26T16:31:29;99477.53;;;1.33;57.03
75594;BME280;64176;49.156;7.810;2023-02-26T16:34:42;99478.00;;;1.24;57.02
75594;BME280;64176;49.156;7.810;2023-02-26T16:45:57;99498.66;;;1.30;55.80
75594;BME280;64176;49.156;7.810;2023-02-26T16:51:35;99498.81;;;1.16;55.48
75594;BME280;64176;49.156;7.810;2023-02-26T16:54:23;99504.69;;;1.15;55.81
75594;BME280;64176;49.156;7.810;2023-02-26T16:57:18;99514.06;;;1.16;55.10
75594;BME280;64176;49.156;7.810;2023-02-26T17:00:07;99505.22;;;1.07;54.56
75594;BME280;64176;49.156;7.810;2023-02-26T17:02:56;99522.09;;;1.05;54.80
75594;BME280;64176;49.156;7.810;2023-02-26T17:06:01;99523.75;;;1.05;54.93
75594;BME280;64176;49.156;7.810;2023-02-26T17:08:52;99527.09;;;1.04;54.97
75594;BME280;64176;49.156;7.810;2023-02-26T17:11:39;99535.44;;;1.01;55.15
75594;BME280;64176;49.156;7.810;2023-02-26T17:14:24;99525.44;;;1.04;54.02
75594;BME280;64176;49.156;7.810;2023-02-26T17:17:10;99537.44;;;1.07;54.49
75594;BME280;64176;49.156;7.810;2023-02-26T17:19:56;99535.09;;;0.94;54.52
75594;BME280;64176;49.156;7.810;2023-02-26T17:22:43;99542.44;;;1.05;53.97
75594;BME280;64176;49.156;7.810;2023-02-26T17:25:33;99517.66;;;0.84;53.08
75594;BME280;64176;49.156;7.810;2023-02-26T17:28:24;99551.84;;;1.06;53.38
75594;BME280;64176;49.156;7.810;2023-02-26T17:31:09;99553.41;;;1.04;52.89
75594;BME280;64176;49.156;7.810;2023-02-26T17:33:55;99549.06;;;1.02;53.29
75594;BME280;64176;49.156;7.810;2023-02-26T17:36:39;99557.44;;;0.99;52.80
75594;BME280;64176;49.156;7.810;2023-02-26T17:39:23;99562.81;;;1.05;53.29
75594;BME280;64176;49.156;7.810;2023-02-26T17:42:12;99559.47;;;1.06;52.62
75594;BME280;64176;49.156;7.810;2023-02-26T17:44:57;99561.94;;;1.05;52.58
75594;BME280;64176;49.156;7.810;2023-02-26T17:47:41;99570.44;;;1.05;53.08
75594;BME280;64176;49.156;7.810;2023-02-26T17:53:23;99567.19;;;1.08;52.97
75594;BME280;64176;49.156;7.810;2023-02-26T17:56:33;99561.78;;;1.02;52.52
75594;BME280;64176;49.156;7.810;2023-02-26T17:59:17;99575.25;;;0.99;53.18
75594;BME280;64176;49.156;7.810;2023-02-26T18:02:00;99576.69;;;0.94;53.18